Terminal Aerodrome Forecast
Issued by NWS

Home | Current Version | Previous Version | Text Only | Print | Product List | Glossary On
Versions: 1 2 3 4 5 6 7 8 9 10 11 12 13 14 15 16 17 18 19 20 21 22 23 24 25 26 27 28 29 30 31 32 33 34 35 36 37 38 39 40 41 42 43 44 45 46
000
FTUS43 KMKX 191131
TAFENW
TAF
KENW 191131Z 1912/2012 10010G18KT P6SM SCT080 BKN150
     FM192000 07010G18KT P6SM OVC100
     FM192100 07011G19KT 6SM -SHRA SCT030 OVC080
     FM192300 05009KT 5SM SHRA OVC015
     FM200100 05008KT 4SM SHRA BR OVC005
     FM200600 34005KT 3SM SHRA BR OVC003
     FM200800 28005KT 6SM -RA OVC005=

USA.gov is the U.S. government's official web portal to all federal, state and local government web resources and services.